Terminal Aerodrome Forecast
Issued by NWS

Home | Current Version | Previous Version | Text Only | Print | Product List | Glossary On
Versions: 1 2 3 4 5 6 7 8 9 10 11 12 13 14 15 16 17 18 19 20 21 22
000
FTUS46 KPDT 191740
TAFPSC
TAF
KPSC 191740Z 1918/2018 36011KT P6SM SCT100
     FM192100 35010KT P6SM FEW100
     FM200200 VRB04KT P6SM SKC
     FM201300 14005KT P6SM SCT040 BKN050=

USA.gov is the U.S. government's official web portal to all federal, state and local government web resources and services.